createdAt,value
2024-03-16T00:02:50.589Z,11.60
2024-03-16T00:07:52.900Z,11.60
2024-03-16T00:12:55.185Z,11.60
2024-03-16T00:17:57.335Z,11.60
2024-03-16T00:22:59.981Z,11.60
2024-03-16T00:28:02.104Z,11.70
2024-03-16T00:33:04.847Z,11.60
2024-03-16T00:38:07.178Z,11.50
2024-03-16T00:43:09.457Z,11.60
2024-03-16T00:48:13.860Z,11.60
2024-03-16T00:53:17.339Z,11.60
2024-03-16T00:58:19.432Z,11.60
2024-03-16T01:03:21.502Z,11.60
2024-03-16T01:08:24.184Z,11.60
2024-03-16T01:13:26.279Z,11.60
2024-03-16T01:18:28.419Z,11.60
2024-03-16T01:23:31.622Z,11.60
2024-03-16T01:28:34.222Z,11.60
2024-03-16T01:33:36.306Z,11.60
2024-03-16T01:38:38.612Z,11.60
2024-03-16T01:43:40.732Z,11.60
2024-03-16T01:48:45.687Z,11.60
2024-03-16T01:53:47.844Z,11.60
2024-03-16T01:58:50.268Z,11.60
2024-03-16T02:03:52.494Z,11.50
2024-03-16T02:08:55.175Z,11.60
2024-03-16T02:13:57.201Z,11.50
2024-03-16T02:18:59.311Z,11.50
2024-03-16T02:24:01.389Z,11.50
2024-03-16T02:29:04.089Z,11.50
2024-03-16T02:34:08.766Z,11.50
2024-03-16T02:39:12.421Z,11.50
2024-03-16T02:44:14.875Z,11.40
2024-03-16T02:49:16.947Z,11.40
2024-03-16T02:54:19.505Z,11.40
2024-03-16T02:59:22.044Z,11.30
2024-03-16T03:04:24.473Z,11.10
2024-03-16T03:09:27.579Z,10.90
2024-03-16T03:14:29.778Z,10.90
2024-03-16T03:19:32.007Z,10.70
2024-03-16T03:24:34.172Z,10.70
2024-03-16T03:29:36.395Z,10.60
2024-03-16T03:34:38.483Z,10.60
2024-03-16T03:39:40.657Z,10.50
2024-03-16T03:44:51.669Z,10.50
2024-03-16T03:49:54.695Z,10.40
2024-03-16T03:54:56.783Z,10.30
2024-03-16T03:59:58.881Z,10.30
2024-03-16T04:05:00.917Z,10.30
2024-03-16T04:10:03.723Z,10.20
2024-03-16T04:15:06.344Z,10.10
2024-03-16T04:20:11.743Z,9.90
2024-03-16T04:25:14.286Z,9.50
2024-03-16T04:30:16.401Z,9.40
2024-03-16T04:35:18.508Z,9.20
2024-03-16T04:40:20.720Z,9.10
2024-03-16T04:45:22.834Z,8.90
2024-03-16T04:50:25.616Z,8.70
2024-03-16T04:55:27.962Z,8.60
2024-03-16T05:00:30.085Z,8.60
2024-03-16T05:05:32.280Z,8.50
2024-03-16T05:10:34.428Z,8.40
2024-03-16T05:15:36.542Z,8.40
2024-03-16T05:20:38.559Z,8.30
2024-03-16T05:25:40.660Z,8.40
2024-03-16T05:30:42.723Z,8.30
2024-03-16T05:35:44.876Z,8.30
2024-03-16T05:40:48.682Z,8.30
2024-03-16T05:45:54.085Z,8.20
2024-03-16T05:50:56.925Z,8.10
2024-03-16T05:55:59.009Z,8.10
2024-03-16T06:01:02.695Z,8.10
2024-03-16T06:06:05.242Z,8.00
2024-03-16T06:11:07.556Z,7.80
2024-03-16T06:16:09.697Z,7.70
2024-03-16T06:21:12.207Z,7.60
2024-03-16T06:26:18.767Z,7.50
2024-03-16T06:31:32.238Z,7.50
2024-03-16T06:36:35.472Z,7.60
2024-03-16T06:41:38.210Z,7.50
2024-03-16T06:46:40.317Z,7.10
2024-03-16T06:51:42.388Z,7.10
2024-03-16T06:56:44.689Z,7.20
2024-03-16T07:01:49.572Z,7.40
2024-03-16T07:06:51.983Z,7.70
2024-03-16T07:11:55.204Z,7.90
2024-03-16T07:16:57.934Z,8.00
2024-03-16T07:22:00.764Z,8.10
2024-03-16T07:27:02.911Z,8.10
2024-03-16T07:32:05.385Z,8.40
2024-03-16T07:37:08.044Z,8.70
2024-03-16T07:42:11.404Z,8.60
2024-03-16T07:47:13.496Z,8.50
2024-03-16T07:52:15.684Z,8.50
2024-03-16T07:57:17.851Z,8.60
2024-03-16T08:02:21.089Z,8.60
2024-03-16T08:07:24.272Z,8.70
2024-03-16T08:12:28.320Z,8.70
2024-03-16T08:17:31.669Z,8.80
2024-03-16T08:22:33.768Z,8.90
2024-03-16T08:27:37.885Z,9.00
2024-03-16T08:32:40.243Z,8.80
2024-03-16T08:37:42.372Z,8.70
2024-03-16T08:42:44.626Z,8.80
2024-03-16T08:47:47.005Z,8.90
2024-03-16T08:52:50.426Z,8.80
2024-03-16T08:57:52.697Z,8.90
2024-03-16T09:02:54.816Z,9.00
2024-03-16T09:07:57.084Z,9.20
2024-03-16T09:12:59.496Z,9.20
2024-03-16T09:18:01.611Z,9.30
2024-03-16T09:23:03.938Z,9.50
2024-03-16T09:28:07.288Z,9.50
2024-03-16T09:33:09.396Z,9.50
2024-03-16T09:38:11.703Z,9.30
